createdAt,value
2022-08-17T00:01:52.342Z,25.35
2022-08-17T00:04:19.889Z,25.35
2022-08-17T00:06:49.108Z,25.33
2022-08-17T00:09:18.671Z,25.32
2022-08-17T00:12:41.500Z,25.29
2022-08-17T00:14:36.083Z,25.24
2022-08-17T00:17:04.786Z,25.20
2022-08-17T00:19:32.735Z,25.16
2022-08-17T00:22:33.585Z,25.11
2022-08-17T00:24:49.859Z,25.08
2022-08-17T00:27:16.462Z,25.04
2022-08-17T00:29:45.491Z,25.00
2022-08-17T00:33:10.814Z,24.96
2022-08-17T00:34:59.609Z,24.94
2022-08-17T00:37:26.337Z,24.92
2022-08-17T00:39:52.920Z,24.88
2022-08-17T00:42:19.983Z,24.83
2022-08-17T00:44:46.835Z,24.79
2022-08-17T00:47:14.070Z,24.77
2022-08-17T00:49:40.597Z,24.74
2022-08-17T00:52:16.713Z,24.68
2022-08-17T00:54:47.119Z,24.67
2022-08-17T00:57:21.707Z,24.60
2022-08-17T01:00:01.919Z,24.59
2022-08-17T01:02:34.396Z,24.56
2022-08-17T01:05:08.279Z,24.55
2022-08-17T01:07:34.823Z,24.52
2022-08-17T01:10:06.656Z,24.50
2022-08-17T01:12:35.729Z,24.46
2022-08-17T01:15:02.648Z,24.44
2022-08-17T01:17:29.504Z,24.44
2022-08-17T01:19:56.556Z,24.41
2022-08-17T01:22:24.892Z,24.38
2022-08-17T01:24:57.030Z,24.36
2022-08-17T01:27:24.517Z,24.36
2022-08-17T01:29:58.610Z,24.32
2022-08-17T01:32:26.929Z,24.31
2022-08-17T01:34:54.074Z,24.31
2022-08-17T01:37:29.006Z,24.26
2022-08-17T01:40:23.003Z,24.20
2022-08-17T01:42:59.342Z,24.21
2022-08-17T01:45:30.475Z,24.20
2022-08-17T01:47:57.145Z,24.19
2022-08-17T01:50:28.418Z,24.15
2022-08-17T01:53:13.424Z,24.10
2022-08-17T01:55:50.253Z,24.12
2022-08-17T01:58:17.362Z,24.13
2022-08-17T02:01:00.214Z,24.11
2022-08-17T02:03:27.669Z,24.10
2022-08-17T02:05:54.651Z,24.07
2022-08-17T02:08:39.351Z,24.04
2022-08-17T02:11:14.640Z,24.03
2022-08-17T02:13:42.397Z,24.02
2022-08-17T02:16:08.917Z,23.99
2022-08-17T02:18:35.498Z,23.95
2022-08-17T02:21:02.644Z,23.93
2022-08-17T02:23:32.292Z,23.88
2022-08-17T02:26:00.202Z,23.85
2022-08-17T02:28:28.548Z,23.80
2022-08-17T02:31:03.423Z,23.72
2022-08-17T02:33:43.162Z,23.68
2022-08-17T02:36:12.679Z,23.65
2022-08-17T02:38:40.775Z,23.61
2022-08-17T02:41:07.641Z,23.57
2022-08-17T02:43:34.973Z,23.54
2022-08-17T02:46:01.625Z,23.50
2022-08-17T02:48:31.071Z,23.48
2022-08-17T02:50:58.843Z,23.45
2022-08-17T02:53:25.773Z,23.41
2022-08-17T02:55:53.255Z,23.38
2022-08-17T02:58:34.575Z,23.36
2022-08-17T03:01:04.692Z,23.34
2022-08-17T03:03:31.749Z,23.32
2022-08-17T03:05:58.246Z,23.30
2022-08-17T03:08:25.595Z,23.30
2022-08-17T03:10:52.227Z,23.29
2022-08-17T03:13:18.889Z,23.27
2022-08-17T03:15:47.374Z,23.25
2022-08-17T03:18:19.089Z,23.24
2022-08-17T03:20:51.705Z,23.21
2022-08-17T03:23:18.787Z,23.19
2022-08-17T03:25:52.828Z,23.17
2022-08-17T03:28:19.757Z,23.12
2022-08-17T03:30:46.263Z,23.08
2022-08-17T03:33:13.053Z,23.02
2022-08-17T03:35:40.602Z,22.98
2022-08-17T03:38:12.659Z,22.92
2022-08-17T03:40:56.569Z,22.89
2022-08-17T03:43:25.756Z,22.84
2022-08-17T03:46:27.915Z,22.82
2022-08-17T03:49:16.009Z,22.76
2022-08-17T03:52:00.921Z,22.72
2022-08-17T03:54:45.896Z,22.68
2022-08-17T03:57:12.842Z,22.63
2022-08-17T03:59:40.978Z,22.60
2022-08-17T04:02:22.101Z,22.56
2022-08-17T04:04:52.278Z,22.58
2022-08-17T04:07:23.451Z,22.58
2022-08-17T04:09:50.552Z,22.59
2022-08-17T04:12:19.258Z,22.60
2022-08-17T04:14:52.810Z,22.62
2022-08-17T04:17:26.939Z,22.62
2022-08-17T04:19:54.869Z,22.67
2022-08-17T04:22:32.233Z,22.68
2022-08-17T04:25:09.448Z,22.69
2022-08-17T04:27:36.318Z,22.73
2022-08-17T04:30:06.986Z,22.74
2022-08-17T04:33:10.825Z,22.76
2022-08-17T04:35:47.930Z,22.76
2022-08-17T04:38:21.155Z,22.76
2022-08-17T04:41:07.115Z,22.78
2022-08-17T04:43:35.594Z,22.76
2022-08-17T04:46:08.322Z,22.72
2022-08-17T04:48:38.071Z,22.73
2022-08-17T04:51:12.334Z,22.72
2022-08-17T04:53:45.295Z,22.73
2022-08-17T04:56:16.846Z,22.75
2022-08-17T04:58:46.286Z,22.77
2022-08-17T05:01:13.340Z,22.80
2022-08-17T05:03:40.064Z,22.81
2022-08-17T05:06:06.727Z,22.82
2022-08-17T05:08:33.749Z,22.85
2022-08-17T05:11:00.417Z,22.88
2022-08-17T05:13:32.002Z,22.90
2022-08-17T05:16:00.629Z,22.95
2022-08-17T05:18:28.766Z,22.99
2022-08-17T05:20:55.850Z,23.05
2022-08-17T05:23:24.963Z,23.10
2022-08-17T05:25:54.738Z,23.15
2022-08-17T05:28:24.031Z,23.18
2022-08-17T05:30:55.203Z,23.23
2022-08-17T05:33:28.828Z,23.24
2022-08-17T05:35:58.049Z,23.28
2022-08-17T05:38:26.510Z,23.30
2022-08-17T05:40:54.409Z,23.35
2022-08-17T05:43:26.969Z,23.36
2022-08-17T05:46:03.265Z,23.38
2022-08-17T05:48:40.522Z,23.43
2022-08-17T05:51:16.470Z,23.51
2022-08-17T05:53:52.561Z,23.53
2022-08-17T05:56:51.149Z,23.57
2022-08-17T05:59:31.030Z,23.66
2022-08-17T06:02:28.193Z,23.71
2022-08-17T06:05:09.753Z,23.80
2022-08-17T06:07:43.435Z,23.89
2022-08-17T06:10:25.519Z,23.96
2022-08-17T06:13:07.003Z,24.05
2022-08-17T06:16:01.840Z,24.12
2022-08-17T06:18:36.374Z,24.25
2022-08-17T06:21:06.744Z,24.33
2022-08-17T06:23:37.895Z,24.44
2022-08-17T06:26:14.834Z,24.51
2022-08-17T06:28:55.073Z,24.63
2022-08-17T06:31:31.790Z,24.72
2022-08-17T06:34:02.903Z,24.85
2022-08-17T06:36:50.827Z,24.95
2022-08-17T06:39:52.981Z,25.04
2022-08-17T06:43:02.293Z,25.14
2022-08-17T06:45:41.911Z,25.29
2022-08-17T06:48:39.552Z,25.36
2022-08-17T06:51:30.467Z,25.49
2022-08-17T06:54:07.081Z,25.60
2022-08-17T06:56:54.294Z,25.67
2022-08-17T06:59:55.724Z,25.80
2022-08-17T07:02:53.127Z,25.94
2022-08-17T07:05:24.222Z,26.04
2022-08-17T07:08:07.452Z,26.09
2022-08-17T07:11:06.908Z,26.17
2022-08-17T07:14:16.942Z,26.24
2022-08-17T07:16:50.450Z,26.34
2022-08-17T07:19:19.979Z,26.38
2022-08-17T07:22:19.858Z,26.40
2022-08-17T07:24:59.688Z,26.47
2022-08-17T07:27:28.613Z,26.52
2022-08-17T07:30:03.745Z,26.55
2022-08-17T07:32:41.288Z,26.60
2022-08-17T07:35:21.220Z,26.66
2022-08-17T07:38:25.584Z,26.76
2022-08-17T07:41:05.195Z,26.87
2022-08-17T07:43:40.818Z,26.96
2022-08-17T07:46:42.918Z,27.00
2022-08-17T07:49:09.384Z,27.13
2022-08-17T07:51:40.795Z,27.18
2022-08-17T07:54:16.117Z,27.23
2022-08-17T07:56:44.981Z,27.34
2022-08-17T07:59:16.698Z,27.38
2022-08-17T08:01:46.850Z,27.49
2022-08-17T08:05:00.618Z,27.54
2022-08-17T08:07:37.397Z,27.68
2022-08-17T08:10:14.021Z,27.77
2022-08-17T08:12:45.128Z,27.88
2022-08-17T08:15:19.051Z,27.99
2022-08-17T08:17:55.931Z,28.08
2022-08-17T08:20:53.289Z,28.20
2022-08-17T08:23:46.559Z,28.35
2022-08-17T08:26:37.496Z,28.53
2022-08-17T08:29:35.674Z,28.68
2022-08-17T08:32:08.502Z,28.86
2022-08-17T08:35:02.479Z,28.96
2022-08-17T08:37:36.694Z,29.11
2022-08-17T08:40:36.981Z,29.18
2022-08-17T08:43:22.365Z,29.31
2022-08-17T08:46:19.707Z,29.34
2022-08-17T08:49:06.463Z,29.39
2022-08-17T08:51:49.430Z,29.49
2022-08-17T08:54:26.561Z,29.53
2022-08-17T08:57:26.793Z,29.54
2022-08-17T09:00:17.214Z,29.55
2022-08-17T09:03:05.333Z,29.61
2022-08-17T09:06:00.527Z,29.57
2022-08-17T09:08:47.483Z,29.58
2022-08-17T09:11:30.547Z,29.61
2022-08-17T09:14:21.704Z,29.62
2022-08-17T09:17:01.757Z,29.58
2022-08-17T09:19:31.109Z,29.62
2022-08-17T09:22:12.004Z,29.62
2022-08-17T09:24:41.804Z,29.68
2022-08-17T09:27:14.150Z,29.70
2022-08-17T09:29:50.141Z,29.75
2022-08-17T09:32:31.774Z,29.81
2022-08-17T09:35:02.703Z,29.91
2022-08-17T09:38:13.499Z,30.00
2022-08-17T09:40:46.898Z,30.19
2022-08-17T09:43:31.562Z,30.37
2022-08-17T09:46:02.942Z,30.59
2022-08-17T09:48:57.603Z,30.77
2022-08-17T09:51:30.402Z,31.02
2022-08-17T09:54:14.744Z,31.18
2022-08-17T09:57:25.874Z,31.32
2022-08-17T10:00:15.986Z,31.48
2022-08-17T10:03:04.527Z,31.63
2022-08-17T10:05:47.861Z,31.77
2022-08-17T10:08:32.595Z,31.87
2022-08-17T10:11:14.284Z,32.01
2022-08-17T10:13:52.894Z,32.06
2022-08-17T10:16:38.333Z,32.07
2022-08-17T10:19:26.398Z,32.07
2022-08-17T10:22:34.494Z,32.09
2022-08-17T10:25:26.034Z,32.09
2022-08-17T10:28:14.260Z,32.06
2022-08-17T10:31:16.592Z,32.05
2022-08-17T10:34:18.572Z,32.07
2022-08-17T10:37:19.807Z,32.09
2022-08-17T10:40:13.412Z,32.17
2022-08-17T10:43:00.541Z,32.19
2022-08-17T10:45:36.759Z,32.26
2022-08-17T10:48:07.147Z,32.32
2022-08-17T10:50:46.331Z,32.35
2022-08-17T10:53:49.435Z,32.44
2022-08-17T10:56:17.467Z,32.53
2022-08-17T10:58:56.272Z,32.61
2022-08-17T11:01:48.893Z,32.56
2022-08-17T11:04:18.153Z,32.55
2022-08-17T11:07:26.219Z,32.42
2022-08-17T11:10:19.071Z,32.32
2022-08-17T11:12:45.557Z,32.29
2022-08-17T11:15:41.358Z,32.17
2022-08-17T11:18:32.136Z,32.04
2022-08-17T11:21:30.365Z,31.94
2022-08-17T11:24:07.561Z,31.91
2022-08-17T11:26:36.963Z,31.85
2022-08-17T11:29:09.650Z,31.77
2022-08-17T11:31:43.824Z,31.72
2022-08-17T11:34:21.584Z,31.70
2022-08-17T11:37:06.438Z,31.69
2022-08-17T11:39:45.903Z,31.66
2022-08-17T11:42:48.302Z,31.62
2022-08-17T11:45:33.202Z,31.65
2022-08-17T11:48:44.279Z,31.56
2022-08-17T11:51:35.730Z,31.56
2022-08-17T11:54:32.305Z,31.54
2022-08-17T11:56:54.558Z,31.53
2022-08-17T11:59:43.781Z,31.45
2022-08-17T12:02:31.699Z,31.42
2022-08-17T12:05:14.278Z,31.41
2022-08-17T12:08:05.718Z,31.43
2022-08-17T12:10:35.491Z,31.42
2022-08-17T12:13:11.178Z,31.38
2022-08-17T12:15:49.454Z,31.36
2022-08-17T12:18:29.032Z,31.33
2022-08-17T12:21:12.267Z,31.29
2022-08-17T12:23:57.652Z,31.25
2022-08-17T12:26:36.007Z,31.24
2022-08-17T12:29:18.111Z,31.20
2022-08-17T12:32:03.866Z,31.24
2022-08-17T12:38:32.105Z,31.15
2022-08-17T12:41:21.488Z,31.11
2022-08-17T12:44:05.176Z,31.05
2022-08-17T12:46:47.386Z,31.06
2022-08-17T12:49:22.923Z,31.10
2022-08-17T12:51:51.361Z,31.10
2022-08-17T12:54:39.588Z,31.01
2022-08-17T12:57:12.616Z,30.98
2022-08-17T12:59:46.268Z,30.91
2022-08-17T13:02:38.090Z,30.79
2022-08-17T13:05:06.909Z,30.74
2022-08-17T13:07:42.029Z,30.64
2022-08-17T13:10:19.328Z,30.54
2022-08-17T13:12:45.825Z,30.50
2022-08-17T13:15:38.198Z,30.36
2022-08-17T13:18:39.611Z,30.29
2022-08-17T13:21:27.842Z,30.22
2022-08-17T13:24:03.707Z,30.19
2022-08-17T13:26:36.968Z,30.14
2022-08-17T13:29:23.332Z,30.08
2022-08-17T13:31:58.879Z,30.05
2022-08-17T13:35:12.591Z,29.97
2022-08-17T13:37:36.998Z,29.99
2022-08-17T13:40:09.709Z,29.92
2022-08-17T13:42:53.004Z,29.87
2022-08-17T13:45:34.897Z,29.81
2022-08-17T13:48:11.939Z,29.77
2022-08-17T13:50:59.529Z,29.75
2022-08-17T13:53:51.539Z,29.61
2022-08-17T13:56:37.371Z,29.57
2022-08-17T13:59:16.480Z,29.51
2022-08-17T14:01:53.593Z,29.46
2022-08-17T14:04:27.950Z,29.41
2022-08-17T14:06:59.382Z,29.36
2022-08-17T14:09:37.749Z,29.31
2022-08-17T14:12:10.707Z,29.26
2022-08-17T14:14:38.291Z,29.24
2022-08-17T14:17:05.272Z,29.21
2022-08-17T14:19:34.724Z,29.20
2022-08-17T14:22:01.862Z,29.22
2022-08-17T14:24:34.617Z,29.22
2022-08-17T14:27:03.349Z,29.24
2022-08-17T14:29:32.065Z,29.33
2022-08-17T14:32:04.302Z,29.30
2022-08-17T14:34:30.827Z,29.30
2022-08-17T14:36:57.330Z,29.30
2022-08-17T14:39:23.980Z,29.29
2022-08-17T14:41:50.622Z,29.30
2022-08-17T14:44:17.334Z,29.32
2022-08-17T14:46:45.055Z,29.37
2022-08-17T14:49:13.315Z,29.46
2022-08-17T14:51:43.860Z,29.55
2022-08-17T14:54:11.626Z,29.66
2022-08-17T14:57:22.440Z,29.82
2022-08-17T14:59:44.797Z,29.96
2022-08-17T15:02:12.163Z,30.09
2022-08-17T15:04:43.408Z,30.24
2022-08-17T15:07:12.007Z,30.46
2022-08-17T15:09:39.096Z,30.80
2022-08-17T15:12:06.668Z,31.29
2022-08-17T15:14:34.985Z,31.88
2022-08-17T15:17:02.770Z,32.53
2022-08-17T15:19:29.353Z,33.22
2022-08-17T15:21:55.847Z,33.89
2022-08-17T15:24:22.395Z,34.54
2022-08-17T15:26:48.887Z,35.18
2022-08-17T15:29:15.392Z,35.77
2022-08-17T15:31:41.927Z,36.31
2022-08-17T15:34:08.746Z,36.82
2022-08-17T15:36:35.879Z,37.28
2022-08-17T15:39:03.189Z,37.74
2022-08-17T15:41:29.985Z,38.16
2022-08-17T15:43:56.987Z,38.56
2022-08-17T15:46:25.881Z,38.93
2022-08-17T15:48:58.969Z,39.29
2022-08-17T15:51:31.081Z,39.60
2022-08-17T15:54:04.439Z,39.82
2022-08-17T15:56:43.876Z,40.20
2022-08-17T15:59:10.382Z,40.37
2022-08-17T16:03:12.965Z,40.49
2022-08-17T16:04:28.446Z,40.54
2022-08-17T16:06:57.817Z,40.48
2022-08-17T16:09:24.347Z,40.29
2022-08-17T16:11:55.375Z,40.03
2022-08-17T16:14:24.106Z,39.66
2022-08-17T16:16:50.980Z,39.27
2022-08-17T16:19:17.496Z,38.82
2022-08-17T16:21:43.977Z,38.38
2022-08-17T16:24:12.857Z,37.94
2022-08-17T16:26:40.606Z,37.47
2022-08-17T16:29:07.836Z,37.01
2022-08-17T16:31:36.030Z,36.56
2022-08-17T16:34:17.835Z,36.11
2022-08-17T16:36:54.658Z,35.61
2022-08-17T16:39:24.561Z,35.20
2022-08-17T16:41:51.214Z,34.79
2022-08-17T16:44:20.418Z,34.42
2022-08-17T16:46:48.470Z,34.08
2022-08-17T16:49:35.773Z,33.81
2022-08-17T16:52:03.378Z,33.51
2022-08-17T16:54:30.303Z,33.26
2022-08-17T16:56:56.858Z,33.02
2022-08-17T16:59:30.903Z,32.78
2022-08-17T17:02:09.985Z,32.52
2022-08-17T17:04:45.881Z,32.24
2022-08-17T17:07:49.831Z,31.93
2022-08-17T17:10:24.152Z,31.71
2022-08-17T17:13:01.858Z,31.48
2022-08-17T17:15:39.518Z,31.24
2022-08-17T17:18:11.506Z,31.00
2022-08-17T17:20:58.408Z,30.71
2022-08-17T17:23:46.575Z,30.48
2022-08-17T17:26:35.207Z,30.32
2022-08-17T17:29:09.347Z,30.09
2022-08-17T17:31:44.219Z,29.94
2022-08-17T17:34:15.907Z,29.78
2022-08-17T17:37:07.223Z,29.57
2022-08-17T17:39:43.727Z,29.47
2022-08-17T17:42:14.876Z,29.33
2022-08-17T17:44:54.159Z,29.17
2022-08-17T17:47:21.305Z,29.03
2022-08-17T17:49:50.504Z,28.87
2022-08-17T17:52:29.236Z,28.73
2022-08-17T17:55:35.153Z,28.53
2022-08-17T17:58:26.459Z,28.44
2022-08-17T18:01:30.322Z,28.34
2022-08-17T18:03:59.537Z,28.32
2022-08-17T18:06:40.089Z,28.22
2022-08-17T18:09:19.485Z,28.15
2022-08-17T18:12:00.902Z,28.12
2022-08-17T18:14:27.466Z,28.10
2022-08-17T18:16:57.298Z,28.04
2022-08-17T18:19:26.256Z,28.01
2022-08-17T18:22:14.382Z,27.93
2022-08-17T18:24:44.814Z,27.90
2022-08-17T18:27:23.380Z,27.80
2022-08-17T18:29:53.346Z,27.75
2022-08-17T18:32:22.690Z,27.64
2022-08-17T18:35:01.674Z,27.53
2022-08-17T18:37:49.406Z,27.40
2022-08-17T18:40:23.409Z,27.34
2022-08-17T18:43:03.831Z,27.19
2022-08-17T18:45:47.945Z,27.08
2022-08-17T18:48:22.643Z,26.98
2022-08-17T18:50:51.474Z,26.89
2022-08-17T18:54:01.360Z,26.70
2022-08-17T18:56:31.709Z,26.64
2022-08-17T18:59:21.905Z,26.52
2022-08-17T19:02:32.496Z,26.37
2022-08-17T19:05:26.557Z,26.30
2022-08-17T19:07:53.560Z,26.29
2022-08-17T19:10:46.195Z,26.13
2022-08-17T19:13:23.932Z,26.08
2022-08-17T19:16:11.583Z,25.98
2022-08-17T19:18:48.474Z,25.89
2022-08-17T19:21:40.414Z,25.77
2022-08-17T19:24:11.314Z,25.75
2022-08-17T19:26:53.561Z,25.66
2022-08-17T19:29:46.941Z,25.55
2022-08-17T19:32:17.747Z,25.54
2022-08-17T19:34:44.770Z,25.48
2022-08-17T19:37:22.187Z,25.41
2022-08-17T19:40:09.160Z,25.32
2022-08-17T19:42:52.425Z,25.26
2022-08-17T19:45:42.216Z,25.16
2022-08-17T19:48:20.614Z,25.13
2022-08-17T19:51:00.884Z,25.01
2022-08-17T19:54:07.367Z,24.91
2022-08-17T19:56:58.919Z,24.87
2022-08-17T19:59:58.382Z,24.73
2022-08-17T20:02:37.000Z,24.67
2022-08-17T20:05:11.957Z,24.63
2022-08-17T20:08:03.441Z,24.53
2022-08-17T20:10:39.188Z,24.52
2022-08-17T20:13:11.191Z,24.48
2022-08-17T20:15:41.909Z,24.44
2022-08-17T20:18:33.231Z,24.40
2022-08-17T20:21:06.139Z,24.37
2022-08-17T20:23:32.516Z,24.33
2022-08-17T20:26:19.469Z,24.32
2022-08-17T20:29:07.726Z,24.26
2022-08-17T20:31:55.090Z,24.23
2022-08-17T20:34:30.993Z,24.20
2022-08-17T20:37:07.853Z,24.15
2022-08-17T20:39:38.069Z,24.12
2022-08-17T20:42:07.178Z,24.06
2022-08-17T20:44:37.461Z,24.01
2022-08-17T20:47:10.219Z,23.95
2022-08-17T20:49:44.498Z,23.89
2022-08-17T20:52:35.346Z,23.85
2022-08-17T20:55:03.186Z,23.79
2022-08-17T20:57:32.537Z,23.72
2022-08-17T21:00:14.452Z,23.67
2022-08-17T21:02:50.526Z,23.61
2022-08-17T21:05:59.830Z,23.55
2022-08-17T21:08:30.517Z,23.58
2022-08-17T21:11:00.093Z,23.56
2022-08-17T21:13:56.070Z,23.49
2022-08-17T21:16:33.898Z,23.48
2022-08-17T21:19:33.937Z,23.43
2022-08-17T21:22:35.643Z,23.39
2022-08-17T21:25:37.180Z,23.36
2022-08-17T21:28:37.540Z,23.32
2022-08-17T21:31:33.175Z,23.31
2022-08-17T21:34:16.046Z,23.23
2022-08-17T21:36:50.671Z,23.22
2022-08-17T21:39:24.145Z,23.17
2022-08-17T21:41:58.346Z,23.14
2022-08-17T21:44:36.862Z,23.09
2022-08-17T21:47:21.966Z,22.99
2022-08-17T21:49:48.494Z,23.01
2022-08-17T21:52:18.191Z,22.96
2022-08-17T21:54:57.372Z,22.89
2022-08-17T21:57:27.623Z,22.89
2022-08-17T22:00:00.452Z,22.85
2022-08-17T22:02:59.723Z,22.78
2022-08-17T22:05:35.312Z,22.77
2022-08-17T22:08:18.418Z,22.74
2022-08-17T22:10:49.083Z,22.73
2022-08-17T22:13:22.765Z,22.69
2022-08-17T22:16:27.715Z,22.69
2022-08-17T22:18:57.613Z,22.68
2022-08-17T22:21:24.654Z,22.68
2022-08-17T22:24:07.315Z,22.62
2022-08-17T22:27:07.526Z,22.61
2022-08-17T22:29:45.883Z,22.62
2022-08-17T22:32:31.272Z,22.59
2022-08-17T22:35:23.857Z,22.58
2022-08-17T22:37:50.476Z,22.63
2022-08-17T22:40:51.044Z,22.57
2022-08-17T22:43:26.040Z,22.61
2022-08-17T22:45:56.103Z,22.60
2022-08-17T22:48:27.189Z,22.59
2022-08-17T22:51:13.465Z,22.54
2022-08-17T22:54:34.125Z,22.51
2022-08-17T22:57:22.900Z,22.57
2022-08-17T22:59:55.676Z,22.55
2022-08-17T23:02:26.117Z,22.54
2022-08-17T23:05:13.060Z,22.51
2022-08-17T23:07:40.430Z,22.48
2022-08-17T23:10:09.853Z,22.46
2022-08-17T23:12:39.846Z,22.44
2022-08-17T23:15:14.408Z,22.39
2022-08-17T23:17:42.020Z,22.40
2022-08-17T23:20:12.532Z,22.39
2022-08-17T23:22:51.220Z,22.39
2022-08-17T23:25:28.738Z,22.37
2022-08-17T23:27:57.347Z,22.37
2022-08-17T23:30:25.605Z,22.36
2022-08-17T23:32:54.304Z,22.34
2022-08-17T23:35:38.976Z,22.33
2022-08-17T23:38:07.740Z,22.33
2022-08-17T23:40:34.538Z,22.32
2022-08-17T23:43:01.088Z,22.30
2022-08-17T23:45:32.642Z,22.30
2022-08-17T23:48:00.307Z,22.29
2022-08-17T23:50:29.971Z,22.29
2022-08-17T23:52:57.839Z,22.28
2022-08-17T23:55:24.411Z,22.25
2022-08-17T23:57:51.129Z,22.24
